Time;durP1;ratioP1;P1;durP2;ratioP2;P2;SDS_P1;SDS_P2;PMS_P1;PMS_P2;Temp;Humidity;BMP_temperature;BMP_pressure;BME280_temperature;BME280_humidity;BME280_pressure;Samples;Min_cycle;Max_cycle;Signal;HPM_P1;HPM_P2
2022/09/29 00:00:35;;;;;;;0.60;0.10;;;11.60;1.00;;;;;;5075157;28;20461;-72
2022/09/29 00:03:03;;;;;;;0.60;0.10;;;11.50;1.00;;;;;;5075191;28;20499;-72
2022/09/29 00:05:31;;;;;;;0.60;0.10;;;11.50;1.00;;;;;;5075234;28;20939;-73
2022/09/29 00:07:59;;;;;;;0.60;0.10;;;11.50;1.00;;;;;;5075001;28;20536;-71
2022/09/29 00:10:27;;;;;;;0.60;0.10;;;11.50;1.00;;;;;;5074940;28;20457;-72
2022/09/29 00:12:55;;;;;;;0.60;0.10;;;11.40;1.00;;;;;;5074564;28;20441;-72
2022/09/29 00:15:23;;;;;;;1.60;1.50;;;11.40;1.00;;;;;;5074694;28;20474;-73
2022/09/29 00:17:52;;;;;;;0.60;0.10;;;11.30;1.00;;;;;;5074598;28;20680;-72
2022/09/29 00:20:40;;;;;;;0.60;0.10;;;11.20;1.00;;;;;;5072649;28;20585;-74
2022/09/29 00:23:07;;;;;;;0.60;0.10;;;11.20;1.00;;;;;;5066547;28;20943;-73
2022/09/29 00:25:35;;;;;;;0.60;0.10;;;11.20;1.00;;;;;;5074224;28;20939;-73
2022/09/29 00:28:03;;;;;;;0.60;0.10;;;11.20;1.00;;;;;;5074286;28;20846;-72
2022/09/29 00:30:31;;;;;;;0.60;0.10;;;11.20;1.00;;;;;;5073785;28;20837;-73
2022/09/29 00:33:00;;;;;;;0.60;0.10;;;11.10;1.00;;;;;;5073972;28;20495;-72
2022/09/29 00:35:28;;;;;;;0.60;0.10;;;11.10;1.00;;;;;;5074094;28;20446;-73
2022/09/29 00:37:55;;;;;;;0.60;0.10;;;11.20;1.00;;;;;;5074384;28;20516;-72
2022/09/29 00:40:23;;;;;;;0.60;0.20;;;11.20;1.00;;;;;;5074276;28;20449;-73
2022/09/29 00:42:51;;;;;;;0.60;0.10;;;11.20;1.00;;;;;;5074111;28;20506;-72
2022/09/29 00:45:21;;;;;;;0.60;0.10;;;11.20;1.00;;;;;;5073846;28;20449;-73
2022/09/29 00:48:02;;;;;;;0.60;0.10;;;11.20;1.00;;;;;;5074639;28;20434;-71
2022/09/29 00:50:41;;;;;;;0.60;0.10;;;11.10;1.00;;;;;;5074007;28;20954;-72
2022/09/29 00:53:12;;;;;;;0.60;0.10;;;11.10;1.00;;;;;;5073701;28;20896;-72
2022/09/29 00:55:50;;;;;;;0.60;0.10;;;11.10;1.00;;;;;;5070323;28;20885;-72
2022/09/29 00:58:26;;;;;;;0.60;0.10;;;11.10;1.00;;;;;;5068985;28;20473;-73
2022/09/29 01:00:54;;;;;;;0.60;0.10;;;11.10;1.00;;;;;;5071336;28;20468;-72
2022/09/29 01:03:25;;;;;;;0.60;0.10;;;11.10;1.00;;;;;;5059023;28;20936;-73
2022/09/29 01:05:59;;;;;;;0.60;0.10;;;11.10;1.00;;;;;;5059451;28;20449;-71
2022/09/29 01:08:32;;;;;;;0.60;0.10;;;11.10;1.00;;;;;;5073327;28;20469;-72
2022/09/29 01:11:01;;;;;;;0.60;0.10;;;11.10;1.00;;;;;;5072322;28;20538;-73
2022/09/29 01:13:30;;;;;;;0.60;0.10;;;11.00;1.00;;;;;;5073056;28;20484;-72
2022/09/29 01:15:57;;;;;;;0.60;0.10;;;10.90;1.00;;;;;;5072523;28;20470;-72
2022/09/29 01:18:26;;;;;;;0.60;0.10;;;10.90;1.00;;;;;;5059038;28;20569;-71
2022/09/29 01:21:02;;;;;;;0.60;0.10;;;10.80;1.00;;;;;;5055029;28;20829;-73
2022/09/29 01:24:08;;;;;;;0.60;0.10;;;10.80;1.00;;;;;;5053918;28;20855;-73
2022/09/29 01:27:11;;;;;;;0.60;0.10;;;10.80;1.00;;;;;;5041379;28;20441;-72
2022/09/29 01:30:11;;;;;;;0.60;0.10;;;10.80;1.00;;;;;;5041697;28;20445;-72
2022/09/29 01:33:11;;;;;;;0.60;0.20;;;10.80;1.00;;;;;;5073051;28;20595;-72
2022/09/29 01:35:48;;;;;;;0.60;0.10;;;10.80;1.00;;;;;;5046412;28;20447;-72
2022/09/29 01:38:31;;;;;;;0.60;0.10;;;10.90;1.00;;;;;;5072600;28;20985;-73
2022/09/29 01:41:06;;;;;;;0.60;0.10;;;10.90;1.00;;;;;;5073109;28;20893;-72
2022/09/29 01:43:38;;;;;;;0.60;0.10;;;10.90;1.00;;;;;;5072759;28;20923;-72
2022/09/29 01:46:12;;;;;;;0.60;0.10;;;10.90;1.00;;;;;;5072367;28;20445;-72
2022/09/29 01:48:45;;;;;;;0.60;0.10;;;10.80;1.00;;;;;;5072909;28;20442;-73
2022/09/29 01:51:18;;;;;;;0.60;0.10;;;10.80;1.00;;;;;;5072913;28;20454;-73
2022/09/29 01:53:49;;;;;;;0.60;0.10;;;10.80;1.00;;;;;;5052746;28;20445;-72
2022/09/29 01:56:23;;;;;;;0.60;0.10;;;10.80;1.00;;;;;;5053155;28;20443;-72
2022/09/29 01:58:55;;;;;;;0.60;0.10;;;10.80;1.00;;;;;;5052852;28;20478;-72
2022/09/29 02:01:26;;;;;;;0.60;0.10;;;10.80;1.00;;;;;;5052661;28;21240;-71
2022/09/29 02:04:01;;;;;;;0.60;0.10;;;10.80;1.00;;;;;;5052688;28;20443;-72
2022/09/29 02:06:36;;;;;;;0.60;0.10;;;10.80;1.00;;;;;;5065194;28;20453;-72
2022/09/29 02:09:08;;;;;;;0.60;0.10;;;10.80;1.00;;;;;;5072806;28;20479;-73
2022/09/29 02:11:40;;;;;;;0.60;0.10;;;7.70;1.00;;;;;;5072516;28;20875;-72
2022/09/29 02:14:15;;;;;;;0.60;0.10;;;10.70;1.00;;;;;;5072396;28;20471;-71
2022/09/29 02:16:48;;;;;;;0.60;0.10;;;10.70;1.00;;;;;;5072715;28;20490;-72
2022/09/29 02:19:20;;;;;;;0.60;0.10;;;10.70;1.00;;;;;;5072381;28;20477;-73
2022/09/29 02:21:50;;;;;;;0.60;0.10;;;10.60;1.00;;;;;;5071693;28;20474;-73
2022/09/29 02:24:18;;;;;;;0.60;0.10;;;10.70;1.00;;;;;;5072253;28;20985;-72
2022/09/29 02:26:47;;;;;;;0.60;0.10;;;10.60;1.00;;;;;;5062844;28;20522;-73
2022/09/29 02:29:16;;;;;;;0.60;0.13;;;10.60;1.00;;;;;;5065298;28;20771;-72
2022/09/29 02:31:46;;;;;;;0.60;0.30;;;10.60;1.00;;;;;;5072601;28;20469;-73
2022/09/29 02:34:21;;;;;;;0.50;0.10;;;10.50;1.00;;;;;;5071736;28;20449;-73
2022/09/29 02:36:58;;;;;;;0.60;0.10;;;10.50;1.00;;;;;;5072151;28;20441;-73
2022/09/29 02:39:38;;;;;;;0.60;0.10;;;10.40;1.00;;;;;;5072237;28;20828;-73
2022/09/29 02:42:18;;;;;;;0.50;0.10;;;10.40;1.00;;;;;;5072068;28;20949;-72
2022/09/29 02:45:07;;;;;;;0.60;0.10;;;10.40;1.00;;;;;;5072472;28;20444;-73
2022/09/29 02:47:51;;;;;;;0.50;0.10;;;10.40;1.00;;;;;;5071282;28;20438;-73
2022/09/29 02:50:39;;;;;;;0.60;0.20;;;10.40;1.00;;;;;;5071969;28;20449;-73
2022/09/29 02:53:15;;;;;;;0.60;0.10;;;10.40;1.00;;;;;;5071850;28;20437;-73
2022/09/29 02:55:49;;;;;;;0.60;0.10;;;10.40;1.00;;;;;;5072342;28;20445;-73
2022/09/29 02:58:23;;;;;;;0.60;0.10;;;10.40;1.00;;;;;;5072442;28;20449;-73
2022/09/29 03:00:53;;;;;;;0.50;0.10;;;10.40;1.00;;;;;;5072069;28;20478;-74
2022/09/29 03:03:20;;;;;;;0.53;0.10;;;10.40;1.00;;;;;;5072200;28;20437;-73
2022/09/29 03:05:50;;;;;;;0.60;0.10;;;10.40;1.00;;;;;;5072296;28;20437;-73
2022/09/29 03:08:18;;;;;;;0.50;0.10;;;10.40;1.00;;;;;;5071994;28;20434;-75
2022/09/29 03:10:46;;;;;;;0.60;0.10;;;10.40;1.00;;;;;;5071707;28;20485;-73
2022/09/29 03:13:13;;;;;;;0.50;0.10;;;10.40;1.00;;;;;;5072149;28;20496;-73
2022/09/29 03:15:41;;;;;;;0.50;0.10;;;10.40;1.00;;;;;;5071104;28;20488;-73
2022/09/29 03:18:09;;;;;;;0.50;0.10;;;10.30;1.00;;;;;;5071821;28;20442;-73
2022/09/29 03:20:37;;;;;;;0.57;0.10;;;10.40;1.00;;;;;;5071661;28;20489;-73
2022/09/29 03:23:06;;;;;;;0.50;0.20;;;10.30;1.00;;;;;;5071955;28;20473;-73
2022/09/29 03:25:34;;;;;;;0.93;0.83;;;10.30;1.00;;;;;;5071869;28;20445;-72
2022/09/29 03:28:02;;;;;;;0.50;0.10;;;;;;;;;;5071779;28;20506;-72
2022/09/29 03:30:30;;;;;;;0.50;0.10;;;10.30;1.00;;;;;;5071544;28;20531;-72
2022/09/29 03:32:58;;;;;;;0.60;0.10;;;10.30;1.00;;;;;;5071413;28;20476;-73
2022/09/29 03:35:25;;;;;;;0.60;0.10;;;10.30;1.00;;;;;;5071607;28;20507;-73
2022/09/29 03:37:57;;;;;;;0.50;0.10;;;10.30;1.00;;;;;;5071606;28;20477;-73
2022/09/29 03:40:27;;;;;;;0.50;0.20;;;10.30;1.00;;;;;;5071596;28;20481;-73
2022/09/29 03:42:55;;;;;;;0.50;0.10;;;10.30;1.00;;;;;;5071101;28;20528;-73
2022/09/29 03:45:22;;;;;;;0.50;0.10;;;10.30;1.00;;;;;;5071732;28;20442;-73
2022/09/29 03:47:50;;;;;;;0.50;0.10;;;10.30;1.00;;;;;;5071598;28;20924;-73
2022/09/29 03:50:18;;;;;;;0.60;0.20;;;10.30;1.00;;;;;;5071538;28;20481;-72
2022/09/29 03:52:46;;;;;;;0.50;0.10;;;10.30;1.00;;;;;;5071554;28;20855;-72
2022/09/29 03:55:15;;;;;;;0.60;0.10;;;;;;;;;;5072621;28;20523;-72
2022/09/29 03:57:45;;;;;;;0.50;0.10;;;10.40;1.00;;;;;;5073660;28;20502;-73
2022/09/29 04:00:14;;;;;;;0.50;0.10;;;10.40;1.00;;;;;;5072599;28;20528;-73
2022/09/29 04:02:42;;;;;;;0.50;0.10;;;10.40;1.00;;;;;;5072677;28;20532;-74
2022/09/29 04:05:09;;;;;;;0.50;0.10;;;10.40;1.00;;;;;;5072154;28;20445;-74
2022/09/29 04:07:37;;;;;;;0.50;0.10;;;10.40;1.00;;;;;;5071571;28;20438;-73
2022/09/29 04:10:06;;;;;;;0.60;0.10;;;10.40;1.00;;;;;;5074475;28;20472;-73
2022/09/29 04:12:34;;;;;;;0.53;0.10;;;10.40;1.00;;;;;;5055657;28;20466;-74
2022/09/29 04:15:04;;;;;;;0.50;0.10;;;10.30;1.00;;;;;;5055414;28;20844;-74
2022/09/29 04:17:31;;;;;;;0.60;0.10;;;10.30;1.00;;;;;;5054974;28;20875;-73
2022/09/29 04:19:59;;;;;;;0.53;0.10;;;10.20;1.00;;;;;;5055323;28;20506;-74
2022/09/29 04:22:27;;;;;;;0.50;0.10;;;10.30;1.00;;;;;;5054827;28;20466;-74
2022/09/29 04:24:55;;;;;;;0.50;0.10;;;10.30;1.00;;;;;;5065148;28;20453;-73
2022/09/29 04:27:23;;;;;;;0.50;0.10;;;10.30;1.00;;;;;;5075832;28;20799;-73
2022/09/29 04:29:51;;;;;;;0.50;0.10;;;10.40;1.00;;;;;;5076895;28;20525;-73
2022/09/29 04:32:20;;;;;;;0.57;0.10;;;10.40;1.00;;;;;;5071838;28;20908;-73
2022/09/29 04:34:48;;;;;;;0.50;0.10;;;10.40;1.00;;;;;;5071355;28;20497;-72
2022/09/29 04:37:15;;;;;;;0.50;0.10;;;10.40;1.00;;;;;;5073029;28;20559;-73
2022/09/29 04:39:43;;;;;;;0.50;0.10;;;10.40;1.00;;;;;;5065646;28;20464;-73
2022/09/29 04:42:11;;;;;;;0.50;0.10;;;10.40;1.00;;;;;;5068486;28;20457;-73
2022/09/29 04:44:39;;;;;;;0.50;0.10;;;10.40;1.00;;;;;;5074873;28;20467;-72
2022/09/29 04:47:06;;;;;;;0.50;0.10;;;10.50;1.00;;;;;;5075183;28;20446;-73
2022/09/29 04:49:36;;;;;;;0.50;0.10;;;10.50;1.00;;;;;;5075880;28;20990;-73
2022/09/29 04:52:04;;;;;;;0.50;0.10;;;10.50;1.00;;;;;;5075064;28;20466;-73
2022/09/29 04:54:33;;;;;;;0.50;0.10;;;10.50;1.00;;;;;;5075880;28;20963;-73
2022/09/29 04:57:05;;;;;;;0.50;0.10;;;10.50;1.00;;;;;;5075109;28;20968;-73
2022/09/29 04:59:33;;;;;;;0.50;0.10;;;;;;;;;;5076489;28;20518;-73
2022/09/29 05:02:01;;;;;;;0.50;0.10;;;10.50;1.00;;;;;;5075934;28;20539;-73
2022/09/29 05:04:29;;;;;;;0.60;0.10;;;10.50;1.00;;;;;;5075364;28;20446;-73
2022/09/29 05:06:58;;;;;;;0.50;0.10;;;10.50;1.00;;;;;;5075567;28;20537;-73
2022/09/29 05:09:26;;;;;;;0.50;0.10;;;10.50;1.00;;;;;;5075602;28;20442;-74
2022/09/29 05:12:00;;;;;;;0.50;0.20;;;10.50;1.00;;;;;;5075709;28;20541;-73
2022/09/29 05:14:28;;;;;;;0.50;0.10;;;10.50;1.00;;;;;;5076846;28;20457;-74
2022/09/29 05:16:56;;;;;;;0.50;0.10;;;10.50;1.00;;;;;;5069416;28;20435;-74
2022/09/29 05:19:24;;;;;;;0.50;0.10;;;10.60;1.00;;;;;;5077127;28;20446;-74
2022/09/29 05:21:51;;;;;;;0.53;0.10;;;10.60;1.00;;;;;;5076035;28;20484;-73
2022/09/29 05:24:21;;;;;;;0.50;0.10;;;10.50;1.00;;;;;;5079425;28;20483;-74
2022/09/29 05:26:49;;;;;;;0.50;0.10;;;;;;;;;;5070257;28;20454;-75
2022/09/29 05:29:23;;;;;;;0.60;0.10;;;10.50;1.00;;;;;;5062105;28;20449;-74
2022/09/29 05:31:51;;;;;;;0.50;0.10;;;10.60;1.00;;;;;;5073404;28;20473;-73
2022/09/29 05:34:19;;;;;;;0.50;0.10;;;10.60;1.00;;;;;;5075101;28;20448;-75
2022/09/29 05:36:47;;;;;;;0.57;0.10;;;10.60;1.00;;;;;;5066548;28;20956;-73
2022/09/29 05:39:16;;;;;;;0.50;0.10;;;10.60;1.00;;;;;;5055412;28;20571;-73
2022/09/29 05:41:45;;;;;;;0.50;0.10;;;10.50;1.00;;;;;;5054723;28;20482;-72
2022/09/29 05:44:13;;;;;;;0.60;0.10;;;10.70;1.00;;;;;;5054591;28;20933;-74
2022/09/29 05:46:40;;;;;;;0.53;0.10;;;10.60;1.00;;;;;;5070121;28;20476;-73
2022/09/29 05:49:08;;;;;;;0.60;0.10;;;10.60;1.00;;;;;;5073413;28;20450;-73
2022/09/29 05:51:36;;;;;;;0.50;0.10;;;10.60;1.00;;;;;;5071692;28;20551;-73
2022/09/29 05:54:04;;;;;;;0.50;0.10;;;10.50;1.00;;;;;;5062038;28;20496;-73
2022/09/29 05:56:32;;;;;;;0.50;0.10;;;10.40;1.00;;;;;;5069402;28;20446;-71
2022/09/29 05:59:01;;;;;;;0.50;0.10;;;10.60;1.00;;;;;;5064766;28;20465;-70
2022/09/29 06:01:31;;;;;;;0.50;0.20;;;10.90;1.00;;;;;;5064544;28;20505;-72
2022/09/29 06:03:59;;;;;;;0.50;0.10;;;10.90;1.00;;;;;;5069197;28;20985;-73
2022/09/29 06:06:28;;;;;;;0.60;0.10;;;10.90;1.00;;;;;;5064865;28;20445;-73
2022/09/29 06:08:58;;;;;;;0.50;0.10;;;10.80;1.00;;;;;;5073867;28;20557;-74
2022/09/29 06:11:27;;;;;;;0.50;0.10;;;10.80;1.00;;;;;;5062125;28;20455;-74
2022/09/29 06:13:55;;;;;;;0.50;0.10;;;10.80;1.00;;;;;;5053799;28;20462;-74
2022/09/29 06:16:27;;;;;;;0.50;0.10;;;11.90;1.00;;;;;;5072988;28;20495;-73
2022/09/29 06:18:56;;;;;;;0.57;0.10;;;;;;;;;;5075058;28;20450;-74
2022/09/29 06:21:26;;;;;;;0.60;0.50;;;10.70;1.00;;;;;;5072767;28;20496;-74
2022/09/29 06:23:55;;;;;;;0.50;0.10;;;10.70;1.00;;;;;;5055012;28;20443;-75
2022/09/29 06:26:24;;;;;;;0.60;0.10;;;10.70;1.00;;;;;;5053986;28;20493;-74
2022/09/29 06:28:52;;;;;;;0.50;0.10;;;10.80;1.00;;;;;;5070402;28;20960;-75
2022/09/29 06:31:22;;;;;;;0.60;0.10;;;10.80;1.00;;;;;;5072614;28;20473;-74
2022/09/29 06:33:51;;;;;;;0.60;0.10;;;10.80;1.00;;;;;;5072881;28;20438;-75
2022/09/29 06:39:10;;;;;;;0.60;0.10;;;10.80;1.00;;;;;;5072565;28;20453;-74
2022/09/29 06:41:37;;;;;;;0.60;0.10;;;10.80;1.00;;;;;;5073252;28;20535;-74
2022/09/29 06:44:07;;;;;;;0.50;0.10;;;10.80;1.00;;;;;;5072691;28;20463;-74
2022/09/29 06:46:34;;;;;;;0.50;0.10;;;10.80;1.00;;;;;;5054701;28;20443;-73
2022/09/29 06:49:04;;;;;;;0.50;0.10;;;10.90;1.00;;;;;;5052009;28;20442;-75
2022/09/29 06:51:31;;;;;;;0.60;0.10;;;10.90;1.00;;;;;;5057318;28;20520;-74
2022/09/29 06:54:14;;;;;;;0.50;0.10;;;10.90;1.00;;;;;;5053905;28;20798;-74
2022/09/29 06:56:42;;;;;;;0.60;0.10;;;10.90;1.00;;;;;;5052275;28;20442;-74
2022/09/29 06:59:09;;;;;;;0.50;0.10;;;10.90;1.00;;;;;;5069721;28;20445;-74
2022/09/29 07:01:37;;;;;;;0.50;0.10;;;10.90;1.00;;;;;;5071776;28;20477;-72
2022/09/29 07:04:06;;;;;;;0.57;0.13;;;10.90;1.00;;;;;;5071502;28;20960;-74
2022/09/29 07:06:34;;;;;;;0.60;0.10;;;10.90;1.00;;;;;;5071899;28;20445;-74
2022/09/29 07:09:02;;;;;;;0.60;0.10;;;10.90;1.00;;;;;;5071953;28;20441;-74
2022/09/29 07:11:30;;;;;;;0.60;0.10;;;10.90;1.00;;;;;;5071353;28;20548;-73
2022/09/29 07:13:58;;;;;;;0.50;0.10;;;10.90;1.00;;;;;;5071242;28;20964;-74
2022/09/29 07:16:25;;;;;;;0.60;0.10;;;10.90;1.00;;;;;;5072170;28;20441;-74
2022/09/29 07:18:53;;;;;;;0.50;0.10;;;10.90;1.00;;;;;;5073125;28;20525;-74
2022/09/29 07:21:23;;;;;;;0.60;0.10;;;;;;;;;;5073190;28;21008;-75
2022/09/29 07:23:50;;;;;;;0.60;0.20;;;11.00;1.00;;;;;;5072765;28;20814;-74
2022/09/29 07:26:18;;;;;;;0.50;0.10;;;11.00;1.00;;;;;;5071963;28;20453;-73
2022/09/29 07:28:47;;;;;;;0.50;0.10;;;10.90;1.00;;;;;;5073561;28;20445;-74
2022/09/29 07:31:18;;;;;;;0.60;0.10;;;10.90;1.00;;;;;;5069296;28;20465;-75
2022/09/29 07:33:47;;;;;;;0.50;0.10;;;10.90;1.00;;;;;;5063498;28;20441;-72
2022/09/29 07:36:16;;;;;;;0.50;0.10;;;11.20;1.00;;;;;;5054123;28;20450;-74
2022/09/29 07:38:47;;;;;;;7.00;1.27;;;11.40;1.00;;;;;;5067549;28;20457;-73
2022/09/29 07:41:17;;;;;;;0.60;0.10;;;11.50;1.00;;;;;;5065674;28;20458;-71
2022/09/29 07:43:44;;;;;;;0.60;0.10;;;11.60;1.00;;;;;;5073203;28;20534;-72
2022/09/29 07:46:13;;;;;;;0.60;0.10;;;11.70;1.00;;;;;;5075305;28;20900;-72
2022/09/29 07:48:41;;;;;;;0.80;0.20;;;11.70;1.00;;;;;;5075295;28;21015;-72
2022/09/29 07:51:17;;;;;;;0.60;0.10;;;11.80;1.00;;;;;;5075725;28;20461;-74
2022/09/29 07:53:47;;;;;;;0.60;0.10;;;11.90;1.00;;;;;;5075791;28;20445;-73
2022/09/29 07:56:17;;;;;;;0.60;0.10;;;12.00;1.00;;;;;;5075456;28;20484;-73
2022/09/29 07:58:45;;;;;;;1.80;1.70;;;12.00;1.00;;;;;;5076028;28;20862;-73
2022/09/29 08:01:14;;;;;;;0.60;0.10;;;12.10;1.00;;;;;;5075403;28;20882;-72
2022/09/29 08:03:45;;;;;;;0.60;0.10;;;12.20;1.00;;;;;;5075199;28;20473;-73
2022/09/29 08:06:13;;;;;;;0.63;0.40;;;12.20;1.00;;;;;;5075792;28;20793;-72
2022/09/29 08:08:42;;;;;;;0.60;0.10;;;12.30;1.00;;;;;;5075121;28;20495;-73
2022/09/29 08:11:25;;;;;;;0.60;0.10;;;12.50;1.00;;;;;;5077884;28;20504;-73
2022/09/29 08:13:59;;;;;;;0.60;0.10;;;12.50;1.00;;;;;;5076234;28;20457;-72
2022/09/29 08:16:27;;;;;;;0.60;0.10;;;12.60;1.00;;;;;;5075021;28;20447;-73
2022/09/29 08:18:55;;;;;;;0.60;0.10;;;12.70;1.00;;;;;;5075865;28;20886;-73
2022/09/29 08:21:23;;;;;;;0.60;0.10;;;12.80;1.00;;;;;;5074193;28;20503;-73
2022/09/29 08:23:51;;;;;;;0.60;0.10;;;12.90;1.00;;;;;;5066498;28;20501;-73
2022/09/29 08:26:20;;;;;;;0.70;0.37;;;12.80;1.00;;;;;;5075372;28;20894;-72
2022/09/29 08:29:09;;;;;;;0.60;0.10;;;12.80;1.00;;;;;;5074720;28;20532;-75
2022/09/29 08:31:43;;;;;;;0.60;0.13;;;12.80;1.00;;;;;;5078129;23;21014;-74
2022/09/29 08:34:12;;;;;;;0.60;0.10;;;12.80;1.00;;;;;;5054979;28;20525;-74
2022/09/29 08:36:40;;;;;;;0.60;0.10;;;12.90;1.00;;;;;;5055011;28;20854;-72
2022/09/29 08:39:10;;;;;;;0.60;0.10;;;13.00;1.00;;;;;;5052004;28;21022;-73
2022/09/29 08:41:50;;;;;;;0.60;0.10;;;13.40;1.00;;;;;;5064551;28;20461;-72
2022/09/29 08:44:27;;;;;;;0.60;0.10;;;13.40;1.00;;;;;;5078447;28;20990;-73
2022/09/29 08:47:14;;;;;;;0.60;0.10;;;13.50;1.00;;;;;;5070907;28;20928;-72
2022/09/29 08:49:46;;;;;;;0.60;0.10;;;13.50;1.00;;;;;;5080710;28;20441;-72
2022/09/29 08:52:20;;;;;;;0.60;0.10;;;13.50;1.00;;;;;;5078746;28;20474;-73
2022/09/29 08:54:50;;;;;;;0.60;0.20;;;13.60;1.00;;;;;;5075930;28;20449;-72
2022/09/29 08:57:19;;;;;;;0.60;0.10;;;13.70;1.00;;;;;;5077622;28;20445;-73
2022/09/29 08:59:53;;;;;;;0.60;0.10;;;13.60;1.00;;;;;;5073963;28;20499;-71
2022/09/29 09:02:57;;;;;;;0.60;0.20;;;13.20;1.00;;;;;;5074179;28;20515;-72
2022/09/29 09:05:44;;;;;;;0.60;0.10;;;13.20;1.00;;;;;;5074618;28;20440;-73
2022/09/29 09:08:22;;;;;;;0.60;0.10;;;13.10;1.00;;;;;;5073038;28;20445;-72
2022/09/29 09:11:01;;;;;;;0.60;0.10;;;12.90;1.00;;;;;;5068892;28;20442;-72
2022/09/29 09:13:45;;;;;;;0.60;0.10;;;12.90;1.00;;;;;;5054775;28;21018;-72
2022/09/29 09:16:25;;;;;;;0.60;0.10;;;12.90;1.00;;;;;;5063654;28;20450;-72
2022/09/29 09:19:30;;;;;;;0.60;0.10;;;13.00;1.00;;;;;;5075207;28;20449;-72
2022/09/29 09:22:10;;;;;;;0.60;0.10;;;12.80;1.00;;;;;;5075200;28;20481;-71
2022/09/29 09:24:47;;;;;;;0.60;0.10;;;12.80;1.00;;;;;;5078832;28;20538;-71
2022/09/29 09:27:21;;;;;;;0.60;0.10;;;12.60;1.00;;;;;;5073292;28;20449;-73
2022/09/29 09:29:56;;;;;;;0.60;0.10;;;12.60;1.00;;;;;;5074001;28;20784;-71
2022/09/29 09:32:29;;;;;;;0.60;0.10;;;12.50;1.00;;;;;;5073522;28;20530;-71
2022/09/29 09:35:01;;;;;;;0.60;0.10;;;12.50;1.00;;;;;;5073701;28;20504;-72
2022/09/29 09:37:48;;;;;;;0.60;0.10;;;12.50;1.00;;;;;;5074789;28;20499;-72
2022/09/29 09:40:19;;;;;;;0.60;0.10;;;12.50;1.00;;;;;;5073827;28;20469;-73
2022/09/29 09:42:52;;;;;;;0.60;0.10;;;12.60;1.00;;;;;;5073500;28;21015;-72
2022/09/29 09:45:29;;;;;;;0.60;0.10;;;12.70;1.00;;;;;;5073817;28;20477;-71
2022/09/29 09:48:05;;;;;;;0.60;0.10;;;12.80;1.00;;;;;;5073594;28;20437;-72
2022/09/29 09:50:41;;;;;;;0.60;0.10;;;12.80;1.00;;;;;;5073338;28;20460;-72
2022/09/29 09:53:15;;;;;;;0.60;0.10;;;13.00;1.00;;;;;;5073000;28;20526;-72
2022/09/29 09:55:43;;;;;;;0.60;0.20;;;13.00;1.00;;;;;;5073676;28;20857;-71
2022/09/29 09:58:27;;;;;;;0.60;0.10;;;13.10;1.00;;;;;;5073106;28;20503;-71
2022/09/29 10:00:59;;;;;;;0.60;0.10;;;13.40;1.00;;;;;;5073155;28;20473;-71
2022/09/29 10:03:29;;;;;;;0.60;0.10;;;13.40;1.00;;;;;;5072970;28;20473;-71
2022/09/29 10:05:58;;;;;;;0.60;0.10;;;13.40;1.00;;;;;;5072429;28;20446;-72
2022/09/29 10:08:28;;;;;;;0.60;0.10;;;13.50;1.00;;;;;;5073384;28;20445;-71
2022/09/29 10:10:57;;;;;;;0.60;0.10;;;13.60;1.00;;;;;;5073317;28;20460;-72
2022/09/29 10:13:28;;;;;;;0.60;0.10;;;13.70;1.00;;;;;;5073515;28;20446;-71
2022/09/29 10:16:01;;;;;;;0.60;0.13;;;13.70;1.00;;;;;;5073035;28;20817;-72
2022/09/29 10:18:37;;;;;;;0.60;0.10;;;13.70;1.00;;;;;;5072848;28;20449;-72
2022/09/29 10:21:19;;;;;;;0.60;0.10;;;13.90;1.00;;;;;;5072759;28;20471;-73
2022/09/29 10:23:51;;;;;;;0.60;0.10;;;13.90;1.00;;;;;;5072532;28;20469;-71
2022/09/29 10:26:24;;;;;;;0.60;0.10;;;13.90;1.00;;;;;;5070849;28;20521;-71
2022/09/29 10:28:55;;;;;;;0.60;0.10;;;13.90;1.00;;;;;;5072863;28;20911;-74
2022/09/29 10:31:26;;;;;;;0.60;0.10;;;13.80;1.00;;;;;;5072357;28;20477;-72
2022/09/29 10:34:00;;;;;;;0.60;0.10;;;13.80;1.00;;;;;;5072054;28;20438;-71
2022/09/29 10:36:32;;;;;;;0.60;0.10;;;13.80;1.00;;;;;;5074549;28;21070;-73
2022/09/29 10:39:00;;;;;;;0.60;0.10;;;13.90;1.00;;;;;;5078222;28;20441;-72
2022/09/29 10:41:51;;;;;;;0.60;0.10;;;14.00;1.00;;;;;;5077292;28;20488;-72
2022/09/29 10:44:21;;;;;;;0.60;0.10;;;14.00;1.00;;;;;;5074602;28;20488;-72
2022/09/29 10:46:52;;;;;;;0.60;0.10;;;14.00;1.00;;;;;;5072206;28;20445;-72
2022/09/29 10:49:23;;;;;;;0.60;0.10;;;14.10;1.00;;;;;;5072263;28;20490;-72
2022/09/29 10:51:58;;;;;;;0.60;0.10;;;14.20;1.00;;;;;;5071224;28;20461;-72
2022/09/29 10:54:27;;;;;;;0.60;0.10;;;14.30;1.00;;;;;;5061981;28;20528;-73
2022/09/29 10:56:56;;;;;;;0.60;0.10;;;14.30;1.00;;;;;;5069216;28;20931;-73
2022/09/29 10:59:25;;;;;;;0.60;0.10;;;14.40;1.00;;;;;;5070696;28;20507;-73
2022/09/29 11:01:58;;;;;;;0.60;0.10;;;14.60;1.00;;;;;;5071376;28;20454;-73
2022/09/29 11:04:31;;;;;;;0.70;0.50;;;14.60;1.00;;;;;;5072435;28;20477;-73
2022/09/29 11:07:07;;;;;;;0.60;0.20;;;14.70;1.00;;;;;;5073005;28;20442;-74
2022/09/29 11:09:40;;;;;;;0.60;0.10;;;14.80;1.00;;;;;;5073164;28;20465;-72
2022/09/29 11:12:30;;;;;;;0.60;0.10;;;14.90;1.00;;;;;;5072628;28;20489;-74
2022/09/29 11:14:59;;;;;;;0.60;0.20;;;15.10;1.00;;;;;;5072694;28;20553;-72
2022/09/29 11:17:30;;;;;;;0.60;0.10;;;15.20;1.00;;;;;;5072531;28;20816;-72
2022/09/29 11:20:02;;;;;;;0.60;0.20;;;15.20;1.00;;;;;;5072556;28;20454;-72
2022/09/29 11:23:08;;;;;;;0.60;0.10;;;15.20;1.00;;;;;;5072071;28;20458;-72
2022/09/29 11:25:54;;;;;;;0.60;0.10;;;15.20;1.00;;;;;;5071849;28;20485;-71
2022/09/29 11:28:47;;;;;;;0.60;0.10;;;15.30;1.00;;;;;;5069302;28;20856;-73
2022/09/29 11:31:35;;;;;;;0.60;0.10;;;15.50;1.00;;;;;;5050238;28;20462;-73
2022/09/29 11:34:22;;;;;;;0.60;0.10;;;15.50;1.00;;;;;;5052249;28;20434;-73
2022/09/29 11:36:59;;;;;;;0.60;0.10;;;15.70;1.00;;;;;;5052437;28;20466;-73
2022/09/29 11:39:43;;;;;;;0.60;0.10;;;15.70;1.00;;;;;;5053870;28;20901;-71
2022/09/29 11:42:26;;;;;;;0.60;0.10;;;15.70;1.00;;;;;;5064821;28;20489;-74
2022/09/29 11:45:00;;;;;;;0.60;0.10;;;15.90;1.00;;;;;;5063859;28;20513;-72
2022/09/29 11:47:56;;;;;;;0.60;0.10;;;16.00;1.00;;;;;;5058296;28;20867;-74
2022/09/29 11:50:32;;;;;;;0.60;0.10;;;16.10;1.00;;;;;;5067736;28;20468;-74
2022/09/29 11:53:13;;;;;;;0.60;0.10;;;16.20;1.00;;;;;;5073174;28;20461;-73
2022/09/29 11:56:04;;;;;;;0.60;0.10;;;16.20;1.00;;;;;;5072786;28;20438;-71
2022/09/29 11:58:46;;;;;;;0.60;0.10;;;16.20;1.00;;;;;;5064095;28;20460;-72
2022/09/29 12:01:26;;;;;;;0.60;0.10;;;16.30;1.00;;;;;;5073279;28;20465;-71
2022/09/29 12:04:14;;;;;;;0.60;0.10;;;16.30;1.00;;;;;;5072633;28;20452;-73
2022/09/29 12:06:54;;;;;;;0.60;0.10;;;16.30;1.00;;;;;;5073908;28;20445;-72
2022/09/29 12:09:56;;;;;;;0.60;0.10;;;16.20;1.00;;;;;;5072630;28;20453;-74
2022/09/29 12:12:30;;;;;;;0.60;0.10;;;16.20;1.00;;;;;;5067306;28;20453;-73
2022/09/29 12:15:09;;;;;;;0.60;0.10;;;16.20;1.00;;;;;;5073041;28;20465;-75
2022/09/29 12:17:42;;;;;;;0.60;0.10;;;16.10;1.00;;;;;;5073157;28;20472;-75
2022/09/29 12:20:19;;;;;;;0.60;0.10;;;16.10;1.00;;;;;;5072423;28;20446;-73
2022/09/29 12:22:49;;;;;;;0.60;0.10;;;16.10;1.00;;;;;;5071861;28;20468;-75
2022/09/29 12:25:23;;;;;;;0.60;0.10;;;16.10;1.00;;;;;;5062307;28;21003;-72
2022/09/29 12:27:54;;;;;;;1.33;0.30;;;16.10;1.00;;;;;;5074466;28;20446;-73
2022/09/29 12:30:28;;;;;;;0.60;0.10;;;15.80;1.00;;;;;;5069362;28;20443;-72
2022/09/29 12:33:02;;;;;;;0.60;0.10;;;15.90;1.00;;;;;;5075909;28;20706;-74
2022/09/29 12:35:35;;;;;;;0.60;0.10;;;15.90;1.00;;;;;;5076211;28;20951;-72
2022/09/29 12:38:15;;;;;;;2.30;0.50;;;16.00;1.00;;;;;;5076553;28;20939;-72
2022/09/29 12:40:50;;;;;;;0.60;0.10;;;15.90;1.00;;;;;;5076119;28;20452;-74
2022/09/29 12:43:23;;;;;;;0.60;0.10;;;15.90;1.00;;;;;;5070216;28;20512;-74
2022/09/29 12:45:57;;;;;;;0.60;0.10;;;16.00;1.00;;;;;;5073809;28;21056;-73
2022/09/29 12:48:40;;;;;;;0.60;0.10;;;16.10;1.00;;;;;;5076851;28;20438;-74
2022/09/29 12:51:13;;;;;;;0.60;0.10;;;16.20;1.00;;;;;;5076996;28;20465;-74
2022/09/29 12:53:50;;;;;;;0.60;0.10;;;16.20;1.00;;;;;;5075853;28;20438;-74
2022/09/29 12:56:24;;;;;;;0.60;0.10;;;16.20;1.00;;;;;;5075589;28;20651;-72
2022/09/29 12:58:57;;;;;;;0.60;0.10;;;16.20;1.00;;;;;;5061795;28;20472;-75
2022/09/29 13:01:28;;;;;;;0.60;0.10;;;16.20;1.00;;;;;;5076144;28;20550;-72
2022/09/29 13:04:36;;;;;;;0.60;0.20;;;16.20;1.00;;;;;;5077968;28;20441;-74
2022/09/29 13:07:38;;;;;;;0.60;0.10;;;16.20;1.00;;;;;;5043442;28;20449;-74
2022/09/29 13:10:36;;;;;;;0.60;0.10;;;16.10;1.00;;;;;;5080436;28;20433;-73
2022/09/29 13:13:27;;;;;;;0.60;0.10;;;16.10;1.00;;;;;;5076461;28;20458;-73
2022/09/29 13:16:07;;;;;;;0.60;0.10;;;16.10;1.00;;;;;;5079324;28;20786;-75
2022/09/29 13:18:58;;;;;;;0.60;0.10;;;16.10;1.00;;;;;;5077702;28;20477;-73
2022/09/29 13:21:51;;;;;;;0.60;0.13;;;16.20;1.00;;;;;;5074677;28;20462;-73
2022/09/29 13:24:41;;;;;;;0.60;0.10;;;16.20;1.00;;;;;;5075513;28;20796;-72
2022/09/29 13:27:29;;;;;;;0.60;0.10;;;16.30;1.00;;;;;;5075786;28;20441;-74
2022/09/29 13:30:03;;;;;;;0.60;0.10;;;16.20;1.00;;;;;;5074882;28;20461;-74
2022/09/29 13:32:34;;;;;;;0.60;0.10;;;16.20;1.00;;;;;;5074393;28;20473;-74